Time;durP1;ratioP1;P1;durP2;ratioP2;P2;SDS_P1;SDS_P2;PMS_P1;PMS_P2;Temp;Humidity;BMP_temperature;BMP_pressure;BME280_temperature;BME280_humidity;BME280_pressure;Samples;Min_cycle;Max_cycle;Signal;HPM_P1;HPM_P2
2023/08/15 00:00:29;;;;;;;10.48;7.68;;;;;;;21.46;100.00;96619.22;5032511;28;20061;-67
2023/08/15 00:02:54;;;;;;;10.98;7.28;;;;;;;21.50;100.00;96611.53;5032669;28;20079;-67
2023/08/15 00:05:20;;;;;;;9.68;6.93;;;;;;;21.73;100.00;96618.84;5033101;28;20025;-67
2023/08/15 00:07:45;;;;;;;14.77;7.50;;;;;;;21.54;100.00;96612.22;5032796;28;20033;-67
2023/08/15 00:10:10;;;;;;;10.90;7.22;;;;;;;21.47;100.00;96609.66;5032674;28;20390;-67
2023/08/15 00:12:36;;;;;;;12.00;7.25;;;;;;;21.54;100.00;96612.22;5032210;28;20072;-67
2023/08/15 00:15:02;;;;;;;12.80;7.15;;;;;;;21.58;100.00;96610.13;5032568;28;20095;-67
2023/08/15 00:17:27;;;;;;;9.98;7.43;;;;;;;21.55;100.00;96605.41;5032972;28;20045;-67
2023/08/15 00:19:53;;;;;;;7.90;6.15;;;;;;;21.51;100.00;96604.75;5032671;28;20029;-67
2023/08/15 00:22:18;;;;;;;14.18;7.47;;;;;;;21.03;100.00;96610.03;5032298;28;20095;-67
2023/08/15 00:24:43;;;;;;;13.23;8.23;;;;;;;20.43;100.00;96599.16;5033516;28;20030;-67
2023/08/15 00:27:09;;;;;;;11.60;8.30;;;;;;;20.35;100.00;96595.00;5033620;28;20382;-66
2023/08/15 00:29:34;;;;;;;8.95;7.70;;;;;;;20.48;100.00;96600.66;5032328;28;20394;-67
2023/08/15 00:32:00;;;;;;;11.73;7.25;;;;;;;20.62;100.00;96603.88;5032284;28;20025;-67
2023/08/15 00:34:25;;;;;;;11.75;7.78;;;;;;;20.80;100.00;96613.78;5032085;28;20029;-67
2023/08/15 00:36:50;;;;;;;11.80;7.65;;;;;;;20.88;100.00;96617.16;5032248;28;20073;-67
2023/08/15 00:39:16;;;;;;;8.80;7.90;;;;;;;20.96;100.00;96613.00;5032305;28;20125;-67
2023/08/15 00:41:41;;;;;;;9.43;6.93;;;;;;;21.02;100.00;96621.59;5033327;28;20386;-67
2023/08/15 00:44:06;;;;;;;11.88;7.07;;;;;;;21.09;100.00;96621.41;5032748;28;20088;-67
2023/08/15 00:46:33;;;;;;;9.07;6.75;;;;;;;21.12;100.00;96626.88;5032671;28;20112;-67
2023/08/15 00:48:59;;;;;;;9.90;6.55;;;;;;;21.04;100.00;96624.72;5032483;28;20029;-67
2023/08/15 00:51:26;;;;;;;8.88;6.78;;;;;;;20.92;100.00;96612.28;5032155;28;20475;-67
2023/08/15 00:53:52;;;;;;;9.57;6.95;;;;;;;20.96;100.00;96622.13;5031719;28;20036;-68
2023/08/15 00:56:21;;;;;;;9.43;7.68;;;;;;;21.01;100.00;96620.78;5031965;28;20087;-67
2023/08/15 00:58:46;;;;;;;8.63;6.88;;;;;;;21.02;100.00;96616.03;5031831;28;20030;-67
2023/08/15 01:01:21;;;;;;;10.32;7.43;;;;;;;20.84;100.00;96617.25;5031808;28;20553;-67
2023/08/15 01:03:47;;;;;;;9.48;6.47;;;;;;;20.86;100.00;96612.03;5028332;28;20041;-67
2023/08/15 01:06:13;;;;;;;10.80;6.72;;;;;;;20.88;100.00;96617.16;5030764;28;20030;-66
2023/08/15 01:08:38;;;;;;;11.20;7.15;;;;;;;20.91;100.00;96616.31;5035033;28;20033;-66
2023/08/15 01:11:04;;;;;;;11.68;7.18;;;;;;;20.89;100.00;96607.59;5038756;28;20029;-66
2023/08/15 01:14:09;;;;;;;12.25;7.88;;;;;;;20.48;100.00;96617.34;5038266;28;20029;-67
2023/08/15 01:16:39;;;;;;;16.60;8.50;;;;;;;20.43;100.00;96602.72;4996642;28;20030;-67
2023/08/15 01:19:29;;;;;;;13.30;8.80;;;;;;;20.33;100.00;96614.91;5032251;28;20095;-67
2023/08/15 01:21:57;;;;;;;12.32;7.85;;;;;;;20.40;100.00;96608.38;5020455;28;20375;-67
2023/08/15 01:24:23;;;;;;;10.07;7.75;;;;;;;20.47;100.00;96605.41;5038032;28;20044;-67
2023/08/15 01:26:48;;;;;;;11.38;7.32;;;;;;;20.58;100.00;96603.16;5038149;28;20029;-66
2023/08/15 01:29:14;;;;;;;11.05;7.97;;;;;;;20.67;100.00;96607.34;5038107;28;20033;-67
2023/08/15 01:31:46;;;;;;;11.68;8.80;;;;;;;20.56;100.00;96600.03;5038373;28;20029;-67
2023/08/15 01:34:20;;;;;;;10.32;7.50;;;;;;;20.68;100.00;96603.38;5038054;28;20037;-67
2023/08/15 01:36:55;;;;;;;13.75;7.82;;;;;;;20.54;100.00;96601.69;5038304;28;20025;-67
2023/08/15 01:39:28;;;;;;;10.02;8.57;;;;;;;20.05;100.00;96597.66;5038183;28;20033;-67
2023/08/15 01:41:57;;;;;;;12.23;8.32;;;;;;;20.03;100.00;96602.09;5038040;28;20033;-67
2023/08/15 01:44:23;;;;;;;11.00;8.67;;;;;;;20.10;100.00;96601.91;5037794;28;20033;-68
2023/08/15 01:46:49;;;;;;;12.68;8.30;;;;;;;20.31;100.00;96597.88;5038194;28;20025;-67
2023/08/15 01:49:14;;;;;;;11.15;7.63;;;;;;;20.53;100.00;96595.34;5038191;28;20052;-67
2023/08/15 01:51:39;;;;;;;11.50;7.85;;;;;;;20.70;100.00;96589.78;5039310;28;20033;-67
2023/08/15 01:54:05;;;;;;;9.50;7.20;;;;;;;20.79;100.00;96592.72;5038410;28;20118;-67
2023/08/15 01:56:31;;;;;;;11.00;7.55;;;;;;;20.91;100.00;96583.66;5038041;28;20025;-67
2023/08/15 01:58:57;;;;;;;9.77;6.75;;;;;;;21.03;100.00;96582.19;5037878;28;20043;-67
2023/08/15 02:01:23;;;;;;;12.00;7.55;;;;;;;21.08;100.00;96581.63;5037934;28;20038;-67
2023/08/15 02:03:48;;;;;;;11.35;7.85;;;;;;;20.75;100.00;96580.91;5037902;28;20473;-67
2023/08/15 02:06:14;;;;;;;12.63;8.73;;;;;;;20.13;100.00;96578.03;5037500;28;20033;-67
2023/08/15 02:08:40;;;;;;;10.73;9.02;;;;;;;19.78;100.00;96580.41;5038066;28;20037;-67
2023/08/15 02:11:05;;;;;;;12.05;9.98;;;;;;;19.73;100.00;96584.47;5038312;28;20105;-67
2023/08/15 02:13:32;;;;;;;16.02;9.45;;;;;;;19.80;100.00;96578.75;5037833;28;20116;-67
2023/08/15 02:15:57;;;;;;;16.23;9.70;;;;;;;19.80;100.00;96567.63;5038660;28;20030;-67
2023/08/15 02:18:26;;;;;;;17.00;10.52;;;;;;;19.81;100.00;96566.44;5038891;28;20442;-67
2023/08/15 02:20:52;;;;;;;18.10;10.48;;;;;;;19.88;100.00;96561.91;5036724;28;20060;-67
2023/08/15 02:23:17;;;;;;;16.77;10.40;;;;;;;19.93;100.00;96569.75;5035596;28;20498;-67
2023/08/15 02:25:43;;;;;;;10.52;9.43;;;;;;;20.11;100.00;96577.69;5035082;28;20360;-68
2023/08/15 02:28:08;;;;;;;12.05;9.30;;;;;;;20.28;100.00;96578.50;5040175;28;20064;-67
2023/08/15 02:30:37;;;;;;;16.42;9.48;;;;;;;20.40;100.00;96563.84;5035165;28;20037;-66
2023/08/15 02:33:06;;;;;;;10.65;8.52;;;;;;;20.43;100.00;96566.56;5034636;28;20040;-67
2023/08/15 02:35:31;;;;;;;12.02;8.80;;;;;;;20.44;100.00;96570.91;5034860;28;20037;-66
2023/08/15 02:37:57;;;;;;;15.25;8.77;;;;;;;20.42;100.00;96567.00;5035942;28;20431;-66
2023/08/15 02:40:27;;;;;;;9.23;7.72;;;;;;;20.38;100.00;96564.31;5035256;28;20064;-67
2023/08/15 02:42:52;;;;;;;12.68;7.70;;;;;;;20.50;100.00;96570.38;5034447;28;20433;-67
2023/08/15 02:45:18;;;;;;;13.27;7.47;;;;;;;20.64;100.00;96572.84;5034899;28;20025;-67
2023/08/15 02:47:44;;;;;;;14.25;7.75;;;;;;;20.78;100.00;96577.28;5034427;28;20040;-68
2023/08/15 02:50:10;;;;;;;9.48;7.45;;;;;;;20.87;100.00;96571.06;5034524;28;20041;-67
2023/08/15 02:52:36;;;;;;;9.63;6.97;;;;;;;20.89;100.00;96572.19;5034022;28;20029;-67
2023/08/15 02:55:01;;;;;;;15.93;6.85;;;;;;;20.95;100.00;96564.84;5034301;28;20040;-67
2023/08/15 02:57:26;;;;;;;16.17;7.80;;;;;;;20.95;100.00;96561.31;5046088;28;20037;-66
2023/08/15 02:59:52;;;;;;;11.40;6.85;;;;;;;20.94;100.00;96562.50;5035067;28;20029;-66
2023/08/15 03:02:17;;;;;;;10.45;6.95;;;;;;;21.01;100.00;96559.53;5032566;28;20080;-66
2023/08/15 03:04:42;;;;;;;10.85;7.22;;;;;;;21.10;100.00;96558.91;5034285;28;20450;-66
2023/08/15 03:07:08;;;;;;;10.70;7.57;;;;;;;21.17;100.00;96558.69;5034339;28;20040;-67
2023/08/15 03:09:34;;;;;;;14.23;7.78;;;;;;;21.19;100.00;96547.91;5034083;28;20026;-67
2023/08/15 03:11:59;;;;;;;12.10;7.22;;;;;;;21.15;100.00;96550.00;5034261;28;20029;-67
2023/08/15 03:14:28;;;;;;;9.75;7.10;;;;;;;20.99;100.00;96548.88;5033957;28;20036;-66
2023/08/15 03:16:53;;;;;;;10.93;7.30;;;;;;;20.91;100.00;96547.47;5033815;28;20055;-67
2023/08/15 03:19:19;;;;;;;12.20;7.85;;;;;;;20.76;100.00;96540.72;5034649;28;20033;-67
2023/08/15 03:21:44;;;;;;;14.05;9.02;;;;;;;20.20;100.00;96553.63;5034484;28;20371;-66
2023/08/15 03:24:10;;;;;;;13.05;9.82;;;;;;;20.08;100.00;96543.19;5034066;28;20029;-66
2023/08/15 03:26:35;;;;;;;14.20;9.32;;;;;;;20.09;100.00;96549.53;5034774;28;20100;-66
2023/08/15 03:29:01;;;;;;;14.90;10.25;;;;;;;20.06;100.00;96545.63;5033956;28;20037;-67
2023/08/15 03:31:26;;;;;;;9.95;8.75;;;;;;;20.05;100.00;96546.84;5033525;28;20041;-67
2023/08/15 03:33:52;;;;;;;14.18;9.57;;;;;;;20.07;100.00;96544.41;5033690;28;20029;-66
2023/08/15 03:36:17;;;;;;;11.20;9.48;;;;;;;20.10;100.00;96553.88;5033761;28;20042;-66
2023/08/15 03:38:42;;;;;;;14.68;9.25;;;;;;;20.19;100.00;96543.72;5033672;28;20033;-66
2023/08/15 03:41:08;;;;;;;10.30;8.38;;;;;;;20.26;100.00;96548.31;5033596;28;20112;-66
2023/08/15 03:43:34;;;;;;;13.13;8.68;;;;;;;20.36;100.00;96540.94;5033470;28;20025;-67
2023/08/15 03:46:00;;;;;;;11.82;8.00;;;;;;;20.58;100.00;96544.75;5033802;28;20029;-67
2023/08/15 03:48:26;;;;;;;12.50;8.05;;;;;;;20.73;100.00;96550.75;5033583;28;20427;-67
2023/08/15 03:50:55;;;;;;;10.68;6.95;;;;;;;20.75;100.00;96550.31;5033755;28;20033;-66
2023/08/15 03:53:20;;;;;;;15.20;8.47;;;;;;;20.60;100.00;96550.66;5033310;28;20041;-67
2023/08/15 03:55:49;;;;;;;9.38;7.40;;;;;;;20.53;100.00;96547.28;5033385;28;20041;-67
2023/08/15 03:58:15;;;;;;;10.05;8.45;;;;;;;20.41;100.00;96548.75;5033413;28;20037;-67
2023/08/15 04:00:40;;;;;;;12.30;6.78;;;;;;;20.37;100.00;96543.28;5033241;28;20026;-67
2023/08/15 04:03:06;;;;;;;11.65;7.63;;;;;;;20.37;100.00;96548.84;5033249;28;20052;-65
2023/08/15 04:05:31;;;;;;;10.95;7.35;;;;;;;20.39;100.00;96551.97;5034202;28;20032;-66
2023/08/15 04:07:56;;;;;;;10.70;7.65;;;;;;;20.42;100.00;96544.75;5034344;28;20033;-66
2023/08/15 04:10:22;;;;;;;13.98;8.32;;;;;;;20.47;100.00;96543.44;5033133;28;20037;-67
2023/08/15 04:12:47;;;;;;;10.18;7.65;;;;;;;20.41;100.00;96548.75;5033532;28;20032;-67
2023/08/15 04:15:13;;;;;;;11.00;8.15;;;;;;;20.46;100.00;96551.00;5031825;28;20167;-67
2023/08/15 04:17:38;;;;;;;10.27;7.43;;;;;;;20.53;100.00;96553.63;5033042;28;20561;-67
2023/08/15 04:20:05;;;;;;;8.95;7.35;;;;;;;20.70;100.00;96557.16;5032520;28;20034;-67
2023/08/15 04:22:31;;;;;;;9.52;6.90;;;;;;;20.81;100.00;96568.03;5032288;28;20034;-67
2023/08/15 04:24:56;;;;;;;9.18;6.35;;;;;;;20.92;100.00;96564.97;5032457;28;20037;-67
2023/08/15 04:27:22;;;;;;;10.85;6.95;;;;;;;21.06;100.00;96566.59;5032672;28;20464;-66
2023/08/15 04:29:47;;;;;;;10.73;7.03;;;;;;;21.17;100.00;96578.19;5032901;28;20040;-66
2023/08/15 04:32:12;;;;;;;7.60;6.60;;;;;;;21.26;100.00;96581.13;5032702;28;20397;-66
2023/08/15 04:34:38;;;;;;;9.02;6.90;;;;;;;21.33;100.00;96580.16;5032574;28;20456;-66
2023/08/15 04:37:03;;;;;;;9.82;7.18;;;;;;;21.35;100.00;96574.91;5032322;28;20056;-66
2023/08/15 04:39:28;;;;;;;9.10;7.25;;;;;;;21.36;100.00;96574.47;5032257;28;20033;-66
2023/08/15 04:41:54;;;;;;;10.30;6.75;;;;;;;21.39;100.00;96581.97;5032098;28;20057;-66
2023/08/15 04:44:19;;;;;;;11.88;7.00;;;;;;;21.42;100.00;96587.88;5030973;28;20030;-66
2023/08/15 04:46:44;;;;;;;11.13;6.90;;;;;;;21.39;100.00;96583.94;5031697;28;20363;-66
2023/08/15 04:49:10;;;;;;;7.68;6.80;;;;;;;21.26;100.00;96583.13;5031978;28;20037;-66
2023/08/15 04:51:35;;;;;;;11.38;6.90;;;;;;;21.17;100.00;96587.31;5032156;28;20103;-66
2023/08/15 04:54:00;;;;;;;15.45;7.00;;;;;;;21.18;100.00;96586.13;5031939;28;20029;-66
2023/08/15 04:56:26;;;;;;;10.85;7.40;;;;;;;21.23;100.00;96592.38;5032298;28;20108;-66
2023/08/15 04:58:51;;;;;;;10.10;6.43;;;;;;;21.28;100.00;96589.81;5032310;28;20379;-66
2023/08/15 05:01:17;;;;;;;9.52;6.88;;;;;;;21.33;100.00;96600.41;5032414;28;20164;-66
2023/08/15 05:03:42;;;;;;;11.10;6.55;;;;;;;21.38;100.00;96604.69;5031873;28;20080;-66
2023/08/15 05:06:07;;;;;;;10.13;6.65;;;;;;;21.39;100.00;96612.59;5032479;28;20386;-66
2023/08/15 05:08:33;;;;;;;9.35;6.70;;;;;;;21.43;100.00;96612.50;5032238;28;20036;-68
2023/08/15 05:11:00;;;;;;;9.32;6.30;;;;;;;21.58;100.00;96624.03;5031859;28;20390;-67
2023/08/15 05:13:25;;;;;;;9.85;6.55;;;;;;;;;;5031527;28;20167;-66
2023/08/15 05:15:50;;;;;;;10.48;7.32;;;;;;;21.72;100.00;96632.00;5031951;28;20045;-67
2023/08/15 05:18:16;;;;;;;10.95;6.65;;;;;;;21.76;100.00;96634.69;5032138;28;20033;-67
2023/08/15 05:20:43;;;;;;;11.18;6.47;;;;;;;21.77;100.00;96637.03;5031977;28;20105;-67
2023/08/15 05:23:08;;;;;;;12.68;7.60;;;;;;;21.79;100.00;96636.59;5031618;28;20083;-67
2023/08/15 05:25:34;;;;;;;8.65;6.22;;;;;;;21.78;100.00;96637.81;5032181;28;20441;-67
2023/08/15 05:28:04;;;;;;;10.00;6.53;;;;;;;21.86;100.00;96630.00;5032207;28;20033;-66
2023/08/15 05:30:31;;;;;;;10.32;6.97;;;;;;;21.90;100.00;96633.50;5032343;28;20021;-67
2023/08/15 05:32:57;;;;;;;9.60;7.10;;;;;;;22.02;100.00;96640.28;5031682;28;20045;-66
2023/08/15 05:35:23;;;;;;;8.35;7.20;;;;;;;22.06;100.00;96638.97;5031988;28;20037;-66
2023/08/15 05:37:48;;;;;;;12.95;7.00;;;;;;;22.14;100.00;96639.53;5032282;28;20108;-66
2023/08/15 05:40:13;;;;;;;13.77;7.07;;;;;;;22.20;100.00;96640.56;5033096;28;20030;-66
2023/08/15 05:42:39;;;;;;;9.68;6.78;;;;;;;22.24;100.00;96638.44;5035858;28;20068;-66
2023/08/15 05:45:05;;;;;;;12.68;6.50;;;;;;;22.23;100.00;96645.22;5032539;28;20063;-66
2023/08/15 05:47:30;;;;;;;12.25;7.10;;;;;;;22.27;100.00;96645.94;5032824;28;20060;-66
2023/08/15 05:49:55;;;;;;;10.60;7.68;;;;;;;22.29;100.00;96643.50;5032130;28;20029;-66
2023/08/15 05:52:21;;;;;;;13.32;6.80;;;;;;;22.31;100.00;96641.03;5031237;28;20434;-66
2023/08/15 05:54:46;;;;;;;10.27;7.25;;;;;;;22.33;100.00;96648.97;5032913;28;20056;-66
2023/08/15 05:57:12;;;;;;;8.95;6.60;;;;;;;22.41;100.00;96647.50;5035510;28;20083;-66
2023/08/15 05:59:37;;;;;;;10.25;6.80;;;;;;;22.43;100.00;96655.41;5035408;28;20030;-66
2023/08/15 06:02:02;;;;;;;10.00;6.68;;;;;;;22.47;100.00;96658.88;5035013;28;20037;-66
2023/08/15 06:04:28;;;;;;;9.77;6.60;;;;;;;22.49;100.00;96668.38;5035417;28;20040;-66
2023/08/15 06:06:53;;;;;;;7.95;6.07;;;;;;;22.55;100.00;96676.19;5035055;28;20083;-66
2023/08/15 06:09:18;;;;;;;11.05;6.38;;;;;;;22.56;100.00;96672.94;5035126;28;20041;-68
2023/08/15 06:11:44;;;;;;;9.10;6.15;;;;;;;22.58;100.00;96680.84;5035126;28;20036;-66
2023/08/15 06:14:09;;;;;;;12.95;6.57;;;;;;;22.56;100.00;96683.31;5034746;28;20061;-66
2023/08/15 06:16:35;;;;;;;14.13;6.82;;;;;;;22.61;100.00;96686.31;5034918;28;20511;-68
2023/08/15 06:19:00;;;;;;;9.27;6.32;;;;;;;22.62;100.00;96696.28;5034750;28;20065;-68
2023/08/15 06:21:26;;;;;;;9.95;6.35;;;;;;;22.53;100.00;96696.94;5034856;28;20517;-68
2023/08/15 06:23:51;;;;;;;8.75;5.97;;;;;;;22.41;100.00;96706.09;5034565;28;20427;-68
2023/08/15 06:26:16;;;;;;;10.40;6.43;;;;;;;22.58;100.00;96706.78;5034333;28;20116;-68
2023/08/15 06:28:42;;;;;;;10.40;8.13;;;;;;;22.41;100.00;96711.66;5034078;28;20501;-68
2023/08/15 06:31:07;;;;;;;11.48;8.25;;;;;;;21.91;100.00;96719.47;5034628;28;20087;-68
2023/08/15 06:33:33;;;;;;;14.52;8.68;;;;;;;21.56;100.00;96710.09;5035185;28;20072;-68
2023/08/15 06:35:58;;;;;;;11.10;8.93;;;;;;;21.38;100.00;96718.91;5034513;28;20040;-67
2023/08/15 06:38:23;;;;;;;12.52;9.35;;;;;;;21.38;100.00;96721.69;5034778;28;20033;-68
2023/08/15 06:40:49;;;;;;;13.88;8.57;;;;;;;21.47;100.00;96716.28;5034307;28;20030;-67
2023/08/15 06:43:14;;;;;;;11.25;9.00;;;;;;;21.72;100.00;96726.78;5034627;28;20398;-67
2023/08/15 06:45:40;;;;;;;10.48;8.05;;;;;;;22.02;100.00;96733.13;5034331;28;20522;-67
2023/08/15 06:48:05;;;;;;;10.32;7.60;;;;;;;22.13;100.00;96741.97;5034402;28;20065;-67
2023/08/15 06:50:32;;;;;;;10.52;7.80;;;;;;;22.27;100.00;96749.16;5034132;28;20508;-67
2023/08/15 06:52:57;;;;;;;13.20;7.80;;;;;;;22.36;100.00;96747.72;5033954;28;20043;-67
2023/08/15 06:55:23;;;;;;;14.98;7.63;;;;;;;22.50;100.00;96738.91;5034384;28;20116;-66
2023/08/15 06:57:49;;;;;;;14.95;7.80;;;;;;;22.66;100.00;96749.19;5034140;28;20041;-67
2023/08/15 07:00:15;;;;;;;13.73;8.02;;;;;;;22.62;100.00;96759.69;5034303;28;20041;-66
2023/08/15 07:02:41;;;;;;;9.02;7.20;;;;;;;22.44;100.00;96760.25;5033757;28;20029;-68
2023/08/15 07:05:07;;;;;;;17.73;7.78;;;;;;;22.43;100.00;96753.09;5032403;28;20043;-68
2023/08/15 07:07:33;;;;;;;14.52;8.85;;;;;;;22.32;100.00;96758.97;5033169;28;20083;-66
2023/08/15 07:09:58;;;;;;;10.75;7.80;;;;;;;22.39;100.00;96758.78;5034459;28;20022;-66
2023/08/15 07:12:24;;;;;;;12.27;7.90;;;;;;;22.48;100.00;96767.25;5034754;28;20442;-65
2023/08/15 07:14:50;;;;;;;14.82;8.00;;;;;;;22.52;100.00;96767.94;5035042;28;20036;-68
2023/08/15 07:17:15;;;;;;;10.57;7.18;;;;;;;22.57;100.00;96768.63;5034088;28;20032;-68
2023/08/15 07:19:41;;;;;;;14.02;7.18;;;;;;;22.71;100.00;96771.75;5035073;28;20033;-67
2023/08/15 07:22:06;;;;;;;13.10;8.10;;;;;;;22.87;100.00;96789.66;5033934;28;20042;-68
2023/08/15 07:24:31;;;;;;;13.07;7.65;;;;;;;22.90;100.00;96778.38;5033955;28;20134;-68
2023/08/15 07:26:57;;;;;;;13.80;8.35;;;;;;;22.86;100.00;96785.28;5033911;28;20057;-68
2023/08/15 07:29:22;;;;;;;14.30;8.25;;;;;;;22.84;100.00;96787.72;5033480;28;20457;-68
2023/08/15 07:31:48;;;;;;;11.70;8.18;;;;;;;22.93;100.00;96796.22;5033535;28;20025;-68
2023/08/15 07:34:13;;;;;;;19.38;8.93;;;;;;;23.08;100.00;96796.56;5033479;28;20112;-67
2023/08/15 07:36:39;;;;;;;15.70;8.25;;;;;;;23.18;100.00;96794.69;5034269;28;20057;-67
2023/08/15 07:39:05;;;;;;;18.02;7.68;;;;;;;23.32;100.00;96797.00;5033261;28;20470;-68
2023/08/15 07:41:31;;;;;;;17.15;8.75;;;;;;;23.41;100.00;96797.09;5033175;28;20475;-68
2023/08/15 07:43:57;;;;;;;20.27;8.48;;;;;;;23.50;100.00;96795.63;5033039;28;20410;-68
2023/08/15 07:46:22;;;;;;;19.55;8.55;;;;;;;23.57;100.00;96796.19;5033612;28;20037;-68
2023/08/15 07:48:48;;;;;;;18.83;9.48;;;;;;;23.44;100.00;96792.63;5033214;28;20029;-68
2023/08/15 07:51:13;;;;;;;12.43;9.07;;;;;;;23.32;100.00;96791.44;5033014;28;20026;-68
2023/08/15 07:53:39;;;;;;;16.60;9.55;;;;;;;23.11;100.00;96798.47;5032813;28;20064;-68
2023/08/15 07:56:04;;;;;;;16.50;9.40;;;;;;;22.39;100.00;96789.47;5033056;28;20034;-68
2023/08/15 07:58:33;;;;;;;16.77;9.93;;;;;;;22.53;100.00;96793.84;5033446;28;20041;-68
2023/08/15 08:00:58;;;;;;;15.35;9.98;;;;;;;22.13;100.00;96792.16;5033452;28;20482;-67
2023/08/15 08:03:23;;;;;;;11.10;8.48;;;;;;;22.41;100.00;96787.00;5032963;28;20026;-68
2023/08/15 08:05:49;;;;;;;21.40;9.57;;;;;;;22.73;100.00;96790.09;5033698;28;20483;-68
2023/08/15 08:08:14;;;;;;;14.45;8.60;;;;;;;23.13;100.00;96798.81;5033566;28;20030;-68
2023/08/15 08:10:40;;;;;;;15.13;9.30;;;;;;;23.56;100.00;96797.41;5033232;28;20135;-68
2023/08/15 08:13:06;;;;;;;17.33;9.20;;;;;;;23.72;100.00;96802.06;5033895;28;20029;-67
2023/08/15 08:15:33;;;;;;;12.85;9.05;;;;;;;23.93;100.00;96803.38;5036092;28;20036;-69
2023/08/15 08:17:58;;;;;;;12.75;8.27;;;;;;;23.98;100.00;96810.38;5034862;28;20021;-67
2023/08/15 08:20:25;;;;;;;16.75;8.93;;;;;;;24.54;100.00;96826.38;5034860;28;20486;-68
2023/08/15 08:22:51;;;;;;;10.93;8.20;;;;;;;25.27;100.00;96821.63;5032674;28;20583;-68
2023/08/15 08:25:22;;;;;;;12.10;8.55;;;;;;;25.29;100.00;96824.75;5032862;28;20045;-68
2023/08/15 08:27:48;;;;;;;12.48;9.13;;;;;;;25.30;100.00;96821.47;5032679;28;20040;-65
2023/08/15 08:30:17;;;;;;;16.58;9.18;;;;;;;25.28;100.00;96823.97;5032592;28;20061;-68
2023/08/15 08:32:43;;;;;;;13.80;9.45;;;;;;;25.25;100.00;96827.69;5032710;28;20021;-67
2023/08/15 08:35:09;;;;;;;15.07;9.73;;;;;;;25.36;100.00;96842.03;5032614;28;20033;-68
2023/08/15 08:37:35;;;;;;;12.10;8.77;;;;;;;26.17;100.00;96846.72;5032529;28;20088;-68
2023/08/15 08:40:00;;;;;;;12.10;8.10;;;;;;;27.48;100.00;96843.19;5032111;28;20482;-64
2023/08/15 08:42:26;;;;;;;11.75;7.85;;;;;;;28.93;93.35;96852.22;5032280;28;20479;-66
2023/08/15 08:44:53;;;;;;;13.70;7.20;;;;;;;29.71;87.47;96865.22;5032679;28;20108;-65
2023/08/15 08:47:21;;;;;;;12.13;6.50;;;;;;;30.77;76.11;96875.53;5032404;28;20475;-66
2023/08/15 08:49:48;;;;;;;12.05;5.57;;;;;;;30.74;76.07;96871.66;5032768;28;20060;-66
2023/08/15 08:52:15;;;;;;;11.43;6.78;;;;;;;31.45;70.56;96876.91;5032661;28;20026;-66
2023/08/15 08:54:41;;;;;;;14.48;7.05;;;;;;;31.21;71.27;96877.25;5035225;28;20060;-66
2023/08/15 08:57:07;;;;;;;9.90;6.22;;;;;;;31.02;74.67;96865.50;5033635;28;20065;-67
2023/08/15 08:59:35;;;;;;;9.27;6.93;;;;;;;32.18;67.05;96880.22;5033521;28;20414;-66
2023/08/15 09:02:01;;;;;;;10.55;6.47;;;;;;;32.72;63.11;96878.63;5032176;28;20068;-67
2023/08/15 09:04:27;;;;;;;12.63;6.93;;;;;;;32.36;62.21;96878.25;5032301;28;20414;-67
2023/08/15 09:06:52;;;;;;;13.43;7.28;;;;;;;32.12;63.39;96872.97;5032480;28;20025;-67
2023/08/15 09:09:19;;;;;;;9.95;6.93;;;;;;;31.47;65.54;96873.59;5032948;28;20033;-67
2023/08/15 09:11:49;;;;;;;10.98;6.85;;;;;;;30.78;67.15;96871.44;5032986;28;20033;-66
2023/08/15 09:14:17;;;;;;;9.43;6.63;;;;;;;30.26;68.97;96861.59;5032502;28;20390;-67
2023/08/15 09:16:48;;;;;;;8.95;5.70;;;;;;;30.36;69.77;96864.31;5033437;28;20083;-67
2023/08/15 09:19:14;;;;;;;11.57;6.50;;;;;;;30.72;67.86;96865.75;5032741;28;20025;-67
2023/08/15 09:21:40;;;;;;;11.95;5.90;;;;;;;30.98;66.08;96867.81;5032293;28;20036;-67
2023/08/15 09:24:07;;;;;;;10.50;5.75;;;;;;;31.24;63.18;96865.72;5032897;28;20026;-67
2023/08/15 09:26:33;;;;;;;10.18;6.65;;;;;;;31.91;61.25;96861.00;5032814;28;20037;-67
2023/08/15 09:28:59;;;;;;;10.60;4.25;;;;;;;32.63;49.58;96864.66;5033668;28;20029;-67
2023/08/15 09:31:24;;;;;;;8.07;4.18;;;;;;;32.64;51.73;96869.84;5038127;28;20021;-67
2023/08/15 09:33:50;;;;;;;10.00;4.03;;;;;;;32.90;48.96;96869.63;5036239;28;20034;-67
2023/08/15 09:36:15;;;;;;;9.10;3.75;;;;;;;34.49;43.70;96875.84;5036446;28;20025;-67
2023/08/15 09:38:41;;;;;;;6.50;3.00;;;;;;;35.48;41.95;96874.16;5036041;28;20474;-67
2023/08/15 09:41:11;;;;;;;5.68;3.35;;;;;;;34.21;44.41;96867.44;5038351;28;20069;-67
2023/08/15 09:43:47;;;;;;;7.03;3.47;;;;;;;34.31;42.23;96870.78;5036278;28;20031;-68
2023/08/15 09:46:12;;;;;;;4.80;2.90;;;;;;;33.67;43.23;96862.94;5036122;28;20435;-65
2023/08/15 09:48:38;;;;;;;5.53;2.97;;;;;;;33.64;42.78;96869.63;5036325;28;20108;-67
2023/08/15 09:51:07;;;;;;;7.30;2.80;;;;;;;34.86;40.26;96866.06;5035788;28;20097;-68
2023/08/15 09:53:33;;;;;;;5.25;2.75;;;;;;;34.68;40.15;96876.00;5036474;28;20040;-67
2023/08/15 09:55:59;;;;;;;9.48;3.53;;;;;;;35.06;39.32;96881.19;5036593;28;20551;-68
2023/08/15 09:58:24;;;;;;;6.20;2.92;;;;;;;36.06;36.62;96878.00;5035249;28;20049;-68
2023/08/15 10:00:51;;;;;;;6.47;3.17;;;;;;;36.91;34.60;96883.41;5035420;28;20033;-68
2023/08/15 10:03:19;;;;;;;5.78;2.70;;;;;;;36.12;36.75;96879.47;5035428;28;20034;-68
2023/08/15 10:05:49;;;;;;;7.55;3.35;;;;;;;34.77;38.66;96874.94;5036041;28;20025;-68
2023/08/15 10:08:18;;;;;;;6.63;2.97;;;;;;;34.62;39.52;96870.34;5035330;28;20041;-68
2023/08/15 10:10:45;;;;;;;;;;;;;;;33.53;41.59;96865.53;5036022;28;20037;-67
2023/08/15 10:13:11;;;;;;;7.32;3.70;;;;;;;33.52;43.05;96869.63;5035105;28;20014;-67
2023/08/15 10:15:38;;;;;;;10.93;3.90;;;;;;;33.35;42.76;96871.75;5035058;28;20049;-67
2023/08/15 10:18:05;;;;;;;7.60;3.40;;;;;;;32.86;43.66;96863.44;5035299;28;20030;-67
2023/08/15 10:20:36;;;;;;;7.85;4.15;;;;;;;32.27;45.33;96847.28;5035593;28;20068;-68
2023/08/15 10:23:01;;;;;;;11.68;4.90;;;;;;;31.24;47.78;96859.25;5035025;28;20037;-67
2023/08/15 10:25:26;;;;;;;11.38;5.07;;;;;;;30.23;51.79;96854.16;5035224;28;20068;-67
2023/08/15 10:27:54;;;;;;;10.27;5.00;;;;;;;30.15;53.45;96843.75;5034904;28;20029;-67
2023/08/15 10:30:42;;;;;;;10.02;4.90;;;;;;;29.84;54.41;96857.25;5034983;28;20276;-67
2023/08/15 10:33:10;;;;;;;9.88;5.47;;;;;;;29.60;57.01;96848.91;5034794;28;20033;-67
2023/08/15 10:35:36;;;;;;;7.93;5.70;;;;;;;29.15;57.17;96860.31;5035088;28;20030;-67
2023/08/15 10:38:13;;;;;;;11.30;5.68;;;;;;;28.89;59.92;96854.47;5035052;28;20033;-67
2023/08/15 10:40:40;;;;;;;12.48;5.53;;;;;;;28.94;61.28;96850.19;5033544;28;20034;-67
2023/08/15 10:43:07;;;;;;;9.50;5.88;;;;;;;28.84;62.23;96855.13;5033913;28;20029;-67
2023/08/15 10:45:38;;;;;;;8.77;5.68;;;;;;;28.98;63.08;96850.75;5034286;28;20087;-67
2023/08/15 10:48:04;;;;;;;14.60;8.13;;;;;;;28.93;65.57;96852.22;5034341;28;20072;-67
2023/08/15 10:50:30;;;;;;;13.35;7.38;;;;;;;28.84;70.67;96843.84;5016558;28;20049;-67
2023/08/15 10:53:03;;;;;;;12.80;7.68;;;;;;;28.67;71.29;96840.00;5034025;28;20033;-67
2023/08/15 10:55:31;;;;;;;16.23;7.38;;;;;;;28.76;69.90;96842.72;5034610;28;20033;-67
2023/08/15 10:57:57;;;;;;;15.20;10.05;;;;;;;28.77;71.88;96833.78;5034590;28;20033;-67
2023/08/15 11:00:23;;;;;;;11.43;7.55;;;;;;;28.73;71.05;96829.59;5033998;28;20095;-67
2023/08/15 11:02:49;;;;;;;11.50;7.45;;;;;;;29.31;67.72;96836.44;5033898;28;20026;-67
2023/08/15 11:05:15;;;;;;;18.92;7.65;;;;;;;29.61;65.13;96829.94;5034159;28;20435;-67
2023/08/15 11:07:43;;;;;;;13.57;7.13;;;;;;;29.53;65.96;96832.41;5040279;28;20037;-67
2023/08/15 11:10:08;;;;;;;11.90;7.93;;;;;;;29.68;64.94;96838.00;5041657;28;20390;-67
2023/08/15 11:12:34;;;;;;;10.98;6.55;;;;;;;29.81;64.44;96824.34;5033705;28;20029;-67
2023/08/15 11:15:00;;;;;;;10.52;7.25;;;;;;;29.77;64.54;96820.97;5034566;28;20416;-67
2023/08/15 11:17:25;;;;;;;11.43;7.45;;;;;;;29.53;66.96;96826.75;5034754;28;20030;-67